sensor_id;sensor_type;location;lat;lon;timestamp;temperature;humidity
2106;DHT22;1059;52.548;13.408;2023-04-05T00:02:09;2.80;99.90
2106;DHT22;1059;52.548;13.408;2023-04-05T00:04:38;2.70;99.90
2106;DHT22;1059;52.548;13.408;2023-04-05T00:07:17;2.70;99.90
2106;DHT22;1059;52.548;13.408;2023-04-05T00:09:46;2.70;99.90
2106;DHT22;1059;52.548;13.408;2023-04-05T00:12:13;2.60;99.90
2106;DHT22;1059;52.548;13.408;2023-04-05T00:14:42;2.50;99.90
2106;DHT22;1059;52.548;13.408;2023-04-05T00:17:09;2.50;99.90
2106;DHT22;1059;52.548;13.408;2023-04-05T00:19:36;2.50;99.90
2106;DHT22;1059;52.548;13.408;2023-04-05T00:22:03;2.50;99.90
2106;DHT22;1059;52.548;13.408;2023-04-05T00:24:30;2.40;99.90
2106;DHT22;1059;52.548;13.408;2023-04-05T00:26:58;2.30;99.90
2106;DHT22;1059;52.548;13.408;2023-04-05T00:29:25;2.40;99.90
2106;DHT22;1059;52.548;13.408;2023-04-05T00:31:54;2.30;99.90
2106;DHT22;1059;52.548;13.408;2023-04-05T00:34:21;2.30;99.90
2106;DHT22;1059;52.548;13.408;2023-04-05T00:36:48;2.20;99.90
2106;DHT22;1059;52.548;13.408;2023-04-05T00:39:15;2.10;99.90
2106;DHT22;1059;52.548;13.408;2023-04-05T00:41:42;2.10;99.90
2106;DHT22;1059;52.548;13.408;2023-04-05T00:44:09;2.00;99.90
2106;DHT22;1059;52.548;13.408;2023-04-05T00:46:37;2.10;99.90
2106;DHT22;1059;52.548;13.408;2023-04-05T00:49:06;2.20;99.90
2106;DHT22;1059;52.548;13.408;2023-04-05T00:51:33;2.30;99.90
2106;DHT22;1059;52.548;13.408;2023-04-05T00:54:01;2.20;99.90
2106;DHT22;1059;52.548;13.408;2023-04-05T00:56:28;2.20;99.90
2106;DHT22;1059;52.548;13.408;2023-04-05T00:58:55;2.20;99.90
2106;DHT22;1059;52.548;13.408;2023-04-05T01:01:24;2.20;99.90
2106;DHT22;1059;52.548;13.408;2023-04-05T01:03:54;2.20;99.90
2106;DHT22;1059;52.548;13.408;2023-04-05T01:06:46;2.20;99.90
2106;DHT22;1059;52.548;13.408;2023-04-05T01:09:28;2.10;99.90
2106;DHT22;1059;52.548;13.408;2023-04-05T01:12:01;2.10;99.90
2106;DHT22;1059;52.548;13.408;2023-04-05T01:14:28;2.00;99.90
2106;DHT22;1059;52.548;13.408;2023-04-05T01:16:55;2.00;99.90
2106;DHT22;1059;52.548;13.408;2023-04-05T01:19:25;1.90;99.90
2106;DHT22;1059;52.548;13.408;2023-04-05T01:25:21;2.10;99.90
2106;DHT22;1059;52.548;13.408;2023-04-05T01:28:05;1.90;99.90
2106;DHT22;1059;52.548;13.408;2023-04-05T01:30:41;1.80;99.90
2106;DHT22;1059;52.548;13.408;2023-04-05T01:33:13;1.80;99.90
2106;DHT22;1059;52.548;13.408;2023-04-05T01:35:46;1.70;99.90
2106;DHT22;1059;52.548;13.408;2023-04-05T01:38:17;1.60;99.90
2106;DHT22;1059;52.548;13.408;2023-04-05T01:40:46;1.70;99.90
2106;DHT22;1059;52.548;13.408;2023-04-05T01:43:14;1.70;99.90
2106;DHT22;1059;52.548;13.408;2023-04-05T01:45:43;1.60;99.90
2106;DHT22;1059;52.548;13.408;2023-04-05T01:48:10;1.80;99.90
2106;DHT22;1059;52.548;13.408;2023-04-05T01:50:37;1.80;99.90
2106;DHT22;1059;52.548;13.408;2023-04-05T01:53:06;1.80;99.90
2106;DHT22;1059;52.548;13.408;2023-04-05T01:55:33;1.70;99.90
2106;DHT22;1059;52.548;13.408;2023-04-05T01:58:00;1.70;99.90
2106;DHT22;1059;52.548;13.408;2023-04-05T02:00:27;1.60;99.90
2106;DHT22;1059;52.548;13.408;2023-04-05T02:02:55;1.70;99.90
2106;DHT22;1059;52.548;13.408;2023-04-05T02:05:22;1.70;99.90
2106;DHT22;1059;52.548;13.408;2023-04-05T02:07:49;1.90;99.90
2106;DHT22;1059;52.548;13.408;2023-04-05T02:10:16;2.10;99.90
2106;DHT22;1059;52.548;13.408;2023-04-05T02:12:44;2.20;99.90
2106;DHT22;1059;52.548;13.408;2023-04-05T02:15:10;2.10;99.90
2106;DHT22;1059;52.548;13.408;2023-04-05T02:17:37;2.10;99.90
2106;DHT22;1059;52.548;13.408;2023-04-05T02:20:07;2.00;99.90
2106;DHT22;1059;52.548;13.408;2023-04-05T02:22:37;2.00;99.90
2106;DHT22;1059;52.548;13.408;2023-04-05T02:25:05;2.00;99.90
2106;DHT22;1059;52.548;13.408;2023-04-05T02:27:33;2.00;99.90
2106;DHT22;1059;52.548;13.408;2023-04-05T02:30:00;2.00;99.90
2106;DHT22;1059;52.548;13.408;2023-04-05T02:32:27;1.90;99.90
2106;DHT22;1059;52.548;13.408;2023-04-05T02:34:54;1.90;99.90
2106;DHT22;1059;52.548;13.408;2023-04-05T02:37:22;1.90;99.90
2106;DHT22;1059;52.548;13.408;2023-04-05T02:39:51;2.00;99.90
2106;DHT22;1059;52.548;13.408;2023-04-05T02:42:18;1.90;99.90
2106;DHT22;1059;52.548;13.408;2023-04-05T02:44:44;2.00;99.90
2106;DHT22;1059;52.548;13.408;2023-04-05T02:47:11;2.00;99.90
2106;DHT22;1059;52.548;13.408;2023-04-05T02:49:41;2.10;99.90
2106;DHT22;1059;52.548;13.408;2023-04-05T02:52:08;2.10;99.90
2106;DHT22;1059;52.548;13.408;2023-04-05T02:54:36;2.20;99.90
2106;DHT22;1059;52.548;13.408;2023-04-05T02:57:03;2.20;99.90
2106;DHT22;1059;52.548;13.408;2023-04-05T02:59:30;2.20;99.90
2106;DHT22;1059;52.548;13.408;2023-04-05T03:01:57;2.20;99.90
2106;DHT22;1059;52.548;13.408;2023-04-05T03:04:24;2.20;99.90
2106;DHT22;1059;52.548;13.408;2023-04-05T03:06:51;2.20;99.90
2106;DHT22;1059;52.548;13.408;2023-04-05T03:09:19;2.20;99.90
2106;DHT22;1059;52.548;13.408;2023-04-05T03:11:48;2.20;99.90
2106;DHT22;1059;52.548;13.408;2023-04-05T03:14:15;2.20;99.90
2106;DHT22;1059;52.548;13.408;2023-04-05T03:16:42;2.30;99.90
2106;DHT22;1059;52.548;13.408;2023-04-05T03:19:08;2.30;99.90
2106;DHT22;1059;52.548;13.408;2023-04-05T03:21:35;2.30;99.90
2106;DHT22;1059;52.548;13.408;2023-04-05T03:24:04;2.30;99.90
2106;DHT22;1059;52.548;13.408;2023-04-05T03:26:31;2.50;99.90
2106;DHT22;1059;52.548;13.408;2023-04-05T03:29:00;2.40;99.90
2106;DHT22;1059;52.548;13.408;2023-04-05T03:31:27;2.40;99.90
2106;DHT22;1059;52.548;13.408;2023-04-05T03:33:55;2.50;99.90
2106;DHT22;1059;52.548;13.408;2023-04-05T03:36:22;2.50;99.90
2106;DHT22;1059;52.548;13.408;2023-04-05T03:38:48;2.50;99.90
2106;DHT22;1059;52.548;13.408;2023-04-05T03:41:16;2.40;99.90
2106;DHT22;1059;52.548;13.408;2023-04-05T03:43:43;2.30;99.90
2106;DHT22;1059;52.548;13.408;2023-04-05T03:46:11;2.40;99.90
2106;DHT22;1059;52.548;13.408;2023-04-05T03:48:38;2.40;99.90
2106;DHT22;1059;52.548;13.408;2023-04-05T03:51:05;2.30;99.90
2106;DHT22;1059;52.548;13.408;2023-04-05T03:53:32;2.30;99.90
2106;DHT22;1059;52.548;13.408;2023-04-05T03:55:59;2.30;99.90
2106;DHT22;1059;52.548;13.408;2023-04-05T03:58:26;2.30;99.90
2106;DHT22;1059;52.548;13.408;2023-04-05T04:00:53;2.30;99.90
2106;DHT22;1059;52.548;13.408;2023-04-05T04:03:22;2.30;99.90
2106;DHT22;1059;52.548;13.408;2023-04-05T04:05:50;2.40;99.90
2106;DHT22;1059;52.548;13.408;2023-04-05T04:08:17;2.40;99.90
2106;DHT22;1059;52.548;13.408;2023-04-05T04:10:44;2.40;99.90
2106;DHT22;1059;52.548;13.408;2023-04-05T04:13:11;2.30;99.90
2106;DHT22;1059;52.548;13.408;2023-04-05T04:15:38;2.20;99.90
2106;DHT22;1059;52.548;13.408;2023-04-05T04:18:05;2.20;99.90
2106;DHT22;1059;52.548;13.408;2023-04-05T04:20:33;2.30;99.90
2106;DHT22;1059;52.548;13.408;2023-04-05T04:23:00;2.40;99.90
2106;DHT22;1059;52.548;13.408;2023-04-05T04:25:27;2.40;99.90
2106;DHT22;1059;52.548;13.408;2023-04-05T04:27:55;2.40;99.90
2106;DHT22;1059;52.548;13.408;2023-04-05T04:30:22;2.50;99.90
2106;DHT22;1059;52.548;13.408;2023-04-05T04:32:50;2.50;99.90
2106;DHT22;1059;52.548;13.408;2023-04-05T04:35:18;2.40;99.90
2106;DHT22;1059;52.548;13.408;2023-04-05T04:37:49;2.40;99.90
2106;DHT22;1059;52.548;13.408;2023-04-05T04:40:17;2.50;99.90
2106;DHT22;1059;52.548;13.408;2023-04-05T04:42:46;2.60;99.90
2106;DHT22;1059;52.548;13.408;2023-04-05T04:45:13;2.60;99.90
2106;DHT22;1059;52.548;13.408;2023-04-05T04:47:48;2.60;99.90
2106;DHT22;1059;52.548;13.408;2023-04-05T04:50:18;2.60;99.90
2106;DHT22;1059;52.548;13.408;2023-04-05T04:52:47;2.70;99.90
2106;DHT22;1059;52.548;13.408;2023-04-05T04:55:14;2.70;99.90
2106;DHT22;1059;52.548;13.408;2023-04-05T04:57:41;2.70;99.90
2106;DHT22;1059;52.548;13.408;2023-04-05T05:00:09;2.70;99.90
2106;DHT22;1059;52.548;13.408;2023-04-05T05:02:39;2.70;99.90
2106;DHT22;1059;52.548;13.408;2023-04-05T05:05:07;2.60;99.90
2106;DHT22;1059;52.548;13.408;2023-04-05T05:07:35;2.60;99.90
2106;DHT22;1059;52.548;13.408;2023-04-05T05:10:04;2.60;99.90
2106;DHT22;1059;52.548;13.408;2023-04-05T05:12:32;2.60;99.90
2106;DHT22;1059;52.548;13.408;2023-04-05T05:14:59;2.70;99.90
2106;DHT22;1059;52.548;13.408;2023-04-05T05:17:26;2.70;99.90
2106;DHT22;1059;52.548;13.408;2023-04-05T05:19:52;2.70;99.90
2106;DHT22;1059;52.548;13.408;2023-04-05T05:22:19;2.70;99.90
2106;DHT22;1059;52.548;13.408;2023-04-05T05:24:46;2.80;99.90
2106;DHT22;1059;52.548;13.408;2023-04-05T05:27:15;2.80;99.90
2106;DHT22;1059;52.548;13.408;2023-04-05T05:29:41;2.80;99.90
2106;DHT22;1059;52.548;13.408;2023-04-05T05:32:08;2.80;99.90
2106;DHT22;1059;52.548;13.408;2023-04-05T05:34:39;2.90;99.90
2106;DHT22;1059;52.548;13.408;2023-04-05T05:37:06;2.90;99.90
2106;DHT22;1059;52.548;13.408;2023-04-05T05:39:33;2.90;99.90
2106;DHT22;1059;52.548;13.408;2023-04-05T05:42:00;2.90;99.90
2106;DHT22;1059;52.548;13.408;2023-04-05T05:44:29;3.00;99.90
2106;DHT22;1059;52.548;13.408;2023-04-05T05:46:56;2.90;99.90
2106;DHT22;1059;52.548;13.408;2023-04-05T05:49:23;2.90;99.90
2106;DHT22;1059;52.548;13.408;2023-04-05T05:51:50;2.90;99.90
2106;DHT22;1059;52.548;13.408;2023-04-05T05:54:18;2.80;99.90
2106;DHT22;1059;52.548;13.408;2023-04-05T05:56:45;2.80;99.90
2106;DHT22;1059;52.548;13.408;2023-04-05T05:59:11;2.80;99.90
2106;DHT22;1059;52.548;13.408;2023-04-05T06:01:40;3.00;99.90
2106;DHT22;1059;52.548;13.408;2023-04-05T06:04:11;3.00;99.90
2106;DHT22;1059;52.548;13.408;2023-04-05T06:06:37;3.00;99.90
2106;DHT22;1059;52.548;13.408;2023-04-05T06:09:05;3.00;99.90
2106;DHT22;1059;52.548;13.408;2023-04-05T06:11:32;3.10;99.90
2106;DHT22;1059;52.548;13.408;2023-04-05T06:13:58;3.20;99.90
2106;DHT22;1059;52.548;13.408;2023-04-05T06:16:25;3.20;99.90
2106;DHT22;1059;52.548;13.408;2023-04-05T06:18:55;3.10;99.90
2106;DHT22;1059;52.548;13.408;2023-04-05T06:21:22;3.20;99.90
2106;DHT22;1059;52.548;13.408;2023-04-05T06:23:49;3.20;99.90
2106;DHT22;1059;52.548;13.408;2023-04-05T06:26:17;3.20;99.90
2106;DHT22;1059;52.548;13.408;2023-04-05T06:28:45;3.20;99.90
2106;DHT22;1059;52.548;13.408;2023-04-05T06:31:13;3.20;99.90
2106;DHT22;1059;52.548;13.408;2023-04-05T06:33:41;3.30;99.90
2106;DHT22;1059;52.548;13.408;2023-04-05T06:36:10;3.30;99.90
2106;DHT22;1059;52.548;13.408;2023-04-05T06:38:37;3.30;99.90
2106;DHT22;1059;52.548;13.408;2023-04-05T06:41:04;3.40;99.90
2106;DHT22;1059;52.548;13.408;2023-04-05T06:43:31;3.40;99.90
2106;DHT22;1059;52.548;13.408;2023-04-05T06:45:58;3.50;99.90
2106;DHT22;1059;52.548;13.408;2023-04-05T06:48:25;3.60;99.90
2106;DHT22;1059;52.548;13.408;2023-04-05T06:50:57;3.60;99.90
2106;DHT22;1059;52.548;13.408;2023-04-05T06:53:25;3.70;99.90
2106;DHT22;1059;52.548;13.408;2023-04-05T06:55:53;3.70;99.90
2106;DHT22;1059;52.548;13.408;2023-04-05T06:58:20;3.80;99.90
2106;DHT22;1059;52.548;13.408;2023-04-05T07:00:48;3.80;99.90
2106;DHT22;1059;52.548;13.408;2023-04-05T07:03:15;4.00;99.90
2106;DHT22;1059;52.548;13.408;2023-04-05T07:05:49;4.00;99.90
2106;DHT22;1059;52.548;13.408;2023-04-05T07:08:17;4.10;99.90
2106;DHT22;1059;52.548;13.408;2023-04-05T07:10:46;4.20;99.90
2106;DHT22;1059;52.548;13.408;2023-04-05T07:13:14;4.20;99.90
2106;DHT22;1059;52.548;13.408;2023-04-05T07:15:41;4.20;99.90
2106;DHT22;1059;52.548;13.408;2023-04-05T07:18:08;4.30;99.90
2106;DHT22;1059;52.548;13.408;2023-04-05T07:20:35;4.40;99.90
2106;DHT22;1059;52.548;13.408;2023-04-05T07:23:02;4.40;99.90
2106;DHT22;1059;52.548;13.408;2023-04-05T07:25:30;4.40;99.90
2106;DHT22;1059;52.548;13.408;2023-04-05T07:27:58;4.40;99.90
2106;DHT22;1059;52.548;13.408;2023-04-05T07:30:26;4.40;99.90
2106;DHT22;1059;52.548;13.408;2023-04-05T07:32:53;4.40;99.90
2106;DHT22;1059;52.548;13.408;2023-04-05T07:35:20;4.40;99.90
2106;DHT22;1059;52.548;13.408;2023-04-05T07:37:47;4.40;99.90
2106;DHT22;1059;52.548;13.408;2023-04-05T07:40:14;4.40;99.90
2106;DHT22;1059;52.548;13.408;2023-04-05T07:42:41;4.40;99.90
2106;DHT22;1059;52.548;13.408;2023-04-05T07:45:10;4.50;99.90
2106;DHT22;1059;52.548;13.408;2023-04-05T07:47:37;4.30;99.90
2106;DHT22;1059;52.548;13.408;2023-04-05T07:50:05;4.40;99.90
2106;DHT22;1059;52.548;13.408;2023-04-05T07:52:34;4.30;99.90
2106;DHT22;1059;52.548;13.408;2023-04-05T07:55:01;4.30;99.90
2106;DHT22;1059;52.548;13.408;2023-04-05T07:57:28;4.30;99.90
2106;DHT22;1059;52.548;13.408;2023-04-05T07:59:55;4.30;99.90
2106;DHT22;1059;52.548;13.408;2023-04-05T08:02:23;4.30;99.90
2106;DHT22;1059;52.548;13.408;2023-04-05T08:04:50;4.30;99.90
2106;DHT22;1059;52.548;13.408;2023-04-05T08:07:17;4.40;99.90
2106;DHT22;1059;52.548;13.408;2023-04-05T08:09:44;4.40;99.90
2106;DHT22;1059;52.548;13.408;2023-04-05T08:12:13;4.40;99.90
2106;DHT22;1059;52.548;13.408;2023-04-05T08:14:40;4.50;99.90
2106;DHT22;1059;52.548;13.408;2023-04-05T08:17:07;4.50;99.90
2106;DHT22;1059;52.548;13.408;2023-04-05T08:19:35;4.60;99.90
2106;DHT22;1059;52.548;13.408;2023-04-05T08:22:02;4.60;99.90
2106;DHT22;1059;52.548;13.408;2023-04-05T08:24:29;4.70;99.90
2106;DHT22;1059;52.548;13.408;2023-04-05T08:26:56;4.80;99.90
2106;DHT22;1059;52.548;13.408;2023-04-05T08:29:22;4.90;99.90
2106;DHT22;1059;52.548;13.408;2023-04-05T08:31:49;4.90;99.90
2106;DHT22;1059;52.548;13.408;2023-04-05T08:34:16;5.00;99.90
2106;DHT22;1059;52.548;13.408;2023-04-05T08:36:44;4.90;99.90
2106;DHT22;1059;52.548;13.408;2023-04-05T08:39:11;5.00;99.90
2106;DHT22;1059;52.548;13.408;2023-04-05T08:41:41;5.00;99.90
2106;DHT22;1059;52.548;13.408;2023-04-05T08:44:12;5.10;99.90
2106;DHT22;1059;52.548;13.408;2023-04-05T08:46:41;5.20;99.90
2106;DHT22;1059;52.548;13.408;2023-04-05T08:49:09;5.30;99.90
2106;DHT22;1059;52.548;13.408;2023-04-05T08:51:37;5.40;99.90
2106;DHT22;1059;52.548;13.408;2023-04-05T08:54:06;5.40;99.90
2106;DHT22;1059;52.548;13.408;2023-04-05T08:56:35;5.40;99.90
2106;DHT22;1059;52.548;13.408;2023-04-05T08:59:03;5.40;99.90
2106;DHT22;1059;52.548;13.408;2023-04-05T09:01:32;5.40;99.90
2106;DHT22;1059;52.548;13.408;2023-04-05T09:04:00;5.50;99.90
2106;DHT22;1059;52.548;13.408;2023-04-05T09:06:28;5.60;99.90
2106;DHT22;1059;52.548;13.408;2023-04-05T09:08:56;5.60;99.90
2106;DHT22;1059;52.548;13.408;2023-04-05T09:11:25;5.80;99.90
2106;DHT22;1059;52.548;13.408;2023-04-05T09:13:51;6.00;99.90
2106;DHT22;1059;52.548;13.408;2023-04-05T09:16:18;6.00;99.90
2106;DHT22;1059;52.548;13.408;2023-04-05T09:18:45;6.00;99.90
2106;DHT22;1059;52.548;13.408;2023-04-05T09:21:13;6.00;99.90
2106;DHT22;1059;52.548;13.408;2023-04-05T09:23:50;6.00;99.90
2106;DHT22;1059;52.548;13.408;2023-04-05T09:26:18;6.00;99.90
2106;DHT22;1059;52.548;13.408;2023-04-05T09:28:47;6.00;99.90
2106;DHT22;1059;52.548;13.408;2023-04-05T09:31:31;6.10;99.90
2106;DHT22;1059;52.548;13.408;2023-04-05T09:33:58;6.10;99.90
2106;DHT22;1059;52.548;13.408;2023-04-05T09:36:26;6.20;99.90
2106;DHT22;1059;52.548;13.408;2023-04-05T09:39:03;6.40;99.90
2106;DHT22;1059;52.548;13.408;2023-04-05T09:41:30;6.50;99.90
2106;DHT22;1059;52.548;13.408;2023-04-05T09:43:59;6.60;99.90
2106;DHT22;1059;52.548;13.408;2023-04-05T09:46:30;6.70;99.90
2106;DHT22;1059;52.548;13.408;2023-04-05T09:48:58;6.80;99.90
2106;DHT22;1059;52.548;13.408;2023-04-05T09:51:32;6.80;99.90
2106;DHT22;1059;52.548;13.408;2023-04-05T09:54:00;7.00;99.90
2106;DHT22;1059;52.548;13.408;2023-04-05T09:56:28;7.10;99.90
2106;DHT22;1059;52.548;13.408;2023-04-05T09:59:00;7.20;99.90
2106;DHT22;1059;52.548;13.408;2023-04-05T10:01:29;7.40;99.90
2106;DHT22;1059;52.548;13.408;2023-04-05T10:03:57;7.50;99.90
2106;DHT22;1059;52.548;13.408;2023-04-05T10:06:34;7.60;99.90
2106;DHT22;1059;52.548;13.408;2023-04-05T10:09:02;7.60;99.90
2106;DHT22;1059;52.548;13.408;2023-04-05T10:11:31;7.70;99.90
2106;DHT22;1059;52.548;13.408;2023-04-05T10:14:01;7.90;99.90
2106;DHT22;1059;52.548;13.408;2023-04-05T10:16:31;8.10;99.90
2106;DHT22;1059;52.548;13.408;2023-04-05T10:18:59;8.10;99.90
2106;DHT22;1059;52.548;13.408;2023-04-05T10:21:29;8.10;99.90
2106;DHT22;1059;52.548;13.408;2023-04-05T10:24:03;8.20;99.90
2106;DHT22;1059;52.548;13.408;2023-04-05T10:26:37;8.20;99.90
2106;DHT22;1059;52.548;13.408;2023-04-05T10:29:11;8.10;99.90
2106;DHT22;1059;52.548;13.408;2023-04-05T10:31:47;8.00;99.90
2106;DHT22;1059;52.548;13.408;2023-04-05T10:34:24;8.00;99.90
2106;DHT22;1059;52.548;13.408;2023-04-05T10:36:56;8.10;99.90
2106;DHT22;1059;52.548;13.408;2023-04-05T10:39:26;7.90;99.90
2106;DHT22;1059;52.548;13.408;2023-04-05T10:41:58;7.90;99.90
2106;DHT22;1059;52.548;13.408;2023-04-05T10:44:29;7.90;99.90
2106;DHT22;1059;52.548;13.408;2023-04-05T10:46:57;7.90;99.90
2106;DHT22;1059;52.548;13.408;2023-04-05T10:49:31;7.90;99.90
2106;DHT22;1059;52.548;13.408;2023-04-05T10:52:01;7.80;99.90
2106;DHT22;1059;52.548;13.408;2023-04-05T10:54:30;7.90;99.90
2106;DHT22;1059;52.548;13.408;2023-04-05T10:56:58;7.90;99.90
2106;DHT22;1059;52.548;13.408;2023-04-05T10:59:28;7.90;99.90
2106;DHT22;1059;52.548;13.408;2023-04-05T11:01:56;8.20;99.90
2106;DHT22;1059;52.548;13.408;2023-04-05T11:04:24;8.50;99.90
2106;DHT22;1059;52.548;13.408;2023-04-05T11:07:12;8.70;99.90
2106;DHT22;1059;52.548;13.408;2023-04-05T11:09:50;8.70;99.90
2106;DHT22;1059;52.548;13.408;2023-04-05T11:12:17;8.90;99.90
2106;DHT22;1059;52.548;13.408;2023-04-05T11:14:45;9.10;99.90
2106;DHT22;1059;52.548;13.408;2023-04-05T11:17:25;9.20;99.90
2106;DHT22;1059;52.548;13.408;2023-04-05T11:20:01;9.10;99.90
2106;DHT22;1059;52.548;13.408;2023-04-05T11:22:29;9.20;99.90
2106;DHT22;1059;52.548;13.408;2023-04-05T11:24:57;9.40;99.90
2106;DHT22;1059;52.548;13.408;2023-04-05T11:27:27;9.30;99.90
2106;DHT22;1059;52.548;13.408;2023-04-05T11:29:56;9.30;99.90
2106;DHT22;1059;52.548;13.408;2023-04-05T11:32:25;9.00;99.90
2106;DHT22;1059;52.548;13.408;2023-04-05T11:35:05;8.80;99.90
2106;DHT22;1059;52.548;13.408;2023-04-05T11:37:52;8.70;99.90
2106;DHT22;1059;52.548;13.408;2023-04-05T11:40:26;8.70;99.90
2106;DHT22;1059;52.548;13.408;2023-04-05T11:43:03;8.60;99.90
2106;DHT22;1059;52.548;13.408;2023-04-05T11:45:35;8.40;99.90
2106;DHT22;1059;52.548;13.408;2023-04-05T11:48:04;8.40;99.90
2106;DHT22;1059;52.548;13.408;2023-04-05T11:50:32;8.40;99.90
2106;DHT22;1059;52.548;13.408;2023-04-05T11:53:12;8.30;99.90
2106;DHT22;1059;52.548;13.408;2023-04-05T11:55:40;8.30;99.90
2106;DHT22;1059;52.548;13.408;2023-04-05T11:58:12;8.60;99.90
2106;DHT22;1059;52.548;13.408;2023-04-05T12:00:40;8.50;99.90
2106;DHT22;1059;52.548;13.408;2023-04-05T12:03:10;8.60;99.90
2106;DHT22;1059;52.548;13.408;2023-04-05T12:05:45;8.50;99.90
2106;DHT22;1059;52.548;13.408;2023-04-05T12:08:12;8.30;99.90
2106;DHT22;1059;52.548;13.408;2023-04-05T12:10:38;8.20;99.90
2106;DHT22;1059;52.548;13.408;2023-04-05T12:13:05;8.20;99.90
2106;DHT22;1059;52.548;13.408;2023-04-05T12:15:36;8.10;99.90
2106;DHT22;1059;52.548;13.408;2023-04-05T12:18:04;7.90;99.90
2106;DHT22;1059;52.548;13.408;2023-04-05T12:20:38;8.00;99.90
2106;DHT22;1059;52.548;13.408;2023-04-05T12:23:05;8.00;99.90
2106;DHT22;1059;52.548;13.408;2023-04-05T12:25:32;8.00;99.90
2106;DHT22;1059;52.548;13.408;2023-04-05T12:28:04;8.10;99.90
2106;DHT22;1059;52.548;13.408;2023-04-05T12:30:33;8.20;99.90
2106;DHT22;1059;52.548;13.408;2023-04-05T12:33:07;8.20;99.90
2106;DHT22;1059;52.548;13.408;2023-04-05T12:35:35;8.30;99.90
2106;DHT22;1059;52.548;13.408;2023-04-05T12:38:02;8.40;99.90
2106;DHT22;1059;52.548;13.408;2023-04-05T12:40:30;8.60;99.90
2106;DHT22;1059;52.548;13.408;2023-04-05T12:43:01;8.80;99.90
2106;DHT22;1059;52.548;13.408;2023-04-05T12:45:29;8.80;99.90
2106;DHT22;1059;52.548;13.408;2023-04-05T12:48:08;8.90;99.90
2106;DHT22;1059;52.548;13.408;2023-04-05T12:50:41;9.10;99.90
2106;DHT22;1059;52.548;13.408;2023-04-05T12:53:08;9.30;99.90
2106;DHT22;1059;52.548;13.408;2023-04-05T12:55:44;9.60;99.90
2106;DHT22;1059;52.548;13.408;2023-04-05T12:58:13;9.80;97.60
2106;DHT22;1059;52.548;13.408;2023-04-05T13:00:42;10.40;98.00
2106;DHT22;1059;52.548;13.408;2023-04-05T13:03:16;10.60;93.70
2106;DHT22;1059;52.548;13.408;2023-04-05T13:05:45;10.80;91.90
2106;DHT22;1059;52.548;13.408;2023-04-05T13:08:12;10.80;90.90
2106;DHT22;1059;52.548;13.408;2023-04-05T13:10:39;11.00;91.20
2106;DHT22;1059;52.548;13.408;2023-04-05T13:13:06;11.00;88.30
2106;DHT22;1059;52.548;13.408;2023-04-05T13:15:32;11.00;85.40
2106;DHT22;1059;52.548;13.408;2023-04-05T13:17:59;10.80;86.90
2106;DHT22;1059;52.548;13.408;2023-04-05T13:20:28;11.00;86.70
2106;DHT22;1059;52.548;13.408;2023-04-05T13:22:55;11.40;84.30
2106;DHT22;1059;52.548;13.408;2023-04-05T13:25:22;11.40;80.00
2106;DHT22;1059;52.548;13.408;2023-04-05T13:27:49;11.40;80.60
2106;DHT22;1059;52.548;13.408;2023-04-05T13:30:16;11.10;77.20
2106;DHT22;1059;52.548;13.408;2023-04-05T13:32:43;10.90;77.10
2106;DHT22;1059;52.548;13.408;2023-04-05T13:35:10;10.50;76.70
2106;DHT22;1059;52.548;13.408;2023-04-05T13:37:38;10.60;77.90
2106;DHT22;1059;52.548;13.408;2023-04-05T13:40:06;11.20;77.90
2106;DHT22;1059;52.548;13.408;2023-04-05T13:42:33;11.90;73.30
2106;DHT22;1059;52.548;13.408;2023-04-05T13:45:00;12.10;69.90
2106;DHT22;1059;52.548;13.408;2023-04-05T13:47:27;12.40;69.60
2106;DHT22;1059;52.548;13.408;2023-04-05T13:49:54;13.00;62.70
2106;DHT22;1059;52.548;13.408;2023-04-05T13:52:21;14.00;61.00
2106;DHT22;1059;52.548;13.408;2023-04-05T13:54:51;14.90;54.20
2106;DHT22;1059;52.548;13.408;2023-04-05T13:57:18;15.40;48.40
2106;DHT22;1059;52.548;13.408;2023-04-05T13:59:45;15.80;46.20
2106;DHT22;1059;52.548;13.408;2023-04-05T14:02:12;15.40;43.40
2106;DHT22;1059;52.548;13.408;2023-04-05T14:04:39;14.90;44.10
2106;DHT22;1059;52.548;13.408;2023-04-05T14:07:06;15.10;42.50
2106;DHT22;1059;52.548;13.408;2023-04-05T14:09:33;15.40;42.30
2106;DHT22;1059;52.548;13.408;2023-04-05T14:12:02;16.30;40.20
2106;DHT22;1059;52.548;13.408;2023-04-05T14:14:29;16.80;37.40
2106;DHT22;1059;52.548;13.408;2023-04-05T14:16:56;16.40;35.10
2106;DHT22;1059;52.548;13.408;2023-04-05T14:19:23;16.60;35.00
2106;DHT22;1059;52.548;13.408;2023-04-05T14:21:50;16.10;34.40
2106;DHT22;1059;52.548;13.408;2023-04-05T14:24:17;15.20;34.30
2106;DHT22;1059;52.548;13.408;2023-04-05T14:26:44;15.00;34.80
2106;DHT22;1059;52.548;13.408;2023-04-05T14:29:15;15.10;35.10
2106;DHT22;1059;52.548;13.408;2023-04-05T14:31:42;15.80;36.00
2106;DHT22;1059;52.548;13.408;2023-04-05T14:34:10;16.80;35.90
2106;DHT22;1059;52.548;13.408;2023-04-05T14:36:37;17.70;34.20
2106;DHT22;1059;52.548;13.408;2023-04-05T14:39:04;17.60;30.20
2106;DHT22;1059;52.548;13.408;2023-04-05T14:41:31;17.60;32.00
2106;DHT22;1059;52.548;13.408;2023-04-05T14:43:59;17.50;30.10
2106;DHT22;1059;52.548;13.408;2023-04-05T14:46:28;17.50;29.90
2106;DHT22;1059;52.548;13.408;2023-04-05T14:48:55;17.30;31.90
2106;DHT22;1059;52.548;13.408;2023-04-05T14:51:22;16.90;29.40
2106;DHT22;1059;52.548;13.408;2023-04-05T14:53:49;16.30;30.40
2106;DHT22;1059;52.548;13.408;2023-04-05T14:56:16;16.10;31.70
2106;DHT22;1059;52.548;13.408;2023-04-05T14:58:43;15.70;29.90
2106;DHT22;1059;52.548;13.408;2023-04-05T15:01:10;15.20;32.20
2106;DHT22;1059;52.548;13.408;2023-04-05T15:03:39;15.00;33.70
2106;DHT22;1059;52.548;13.408;2023-04-05T15:06:06;14.30;33.40
2106;DHT22;1059;52.548;13.408;2023-04-05T15:08:33;13.50;33.80
2106;DHT22;1059;52.548;13.408;2023-04-05T15:11:00;13.00;34.70
2106;DHT22;1059;52.548;13.408;2023-04-05T15:13:27;12.10;34.90
2106;DHT22;1059;52.548;13.408;2023-04-05T15:15:54;11.50;37.40
2106;DHT22;1059;52.548;13.408;2023-04-05T15:18:21;10.80;41.40
2106;DHT22;1059;52.548;13.408;2023-04-05T15:20:49;10.40;45.10
2106;DHT22;1059;52.548;13.408;2023-04-05T15:23:18;10.20;47.40
2106;DHT22;1059;52.548;13.408;2023-04-05T15:25:45;10.30;52.60
2106;DHT22;1059;52.548;13.408;2023-04-05T15:28:12;10.40;50.90
2106;DHT22;1059;52.548;13.408;2023-04-05T15:30:39;10.60;52.40
2106;DHT22;1059;52.548;13.408;2023-04-05T15:33:07;10.30;50.30
2106;DHT22;1059;52.548;13.408;2023-04-05T15:35:35;9.60;51.50
2106;DHT22;1059;52.548;13.408;2023-04-05T15:38:03;9.10;53.20
2106;DHT22;1059;52.548;13.408;2023-04-05T15:40:30;9.00;54.80
2106;DHT22;1059;52.548;13.408;2023-04-05T15:42:58;8.90;54.40
2106;DHT22;1059;52.548;13.408;2023-04-05T15:45:25;8.80;53.50
2106;DHT22;1059;52.548;13.408;2023-04-05T15:47:52;8.90;55.40
2106;DHT22;1059;52.548;13.408;2023-04-05T15:50:19;9.00;56.10
2106;DHT22;1059;52.548;13.408;2023-04-05T15:52:47;9.40;56.80
2106;DHT22;1059;52.548;13.408;2023-04-05T15:55:15;10.00;56.30
2106;DHT22;1059;52.548;13.408;2023-04-05T15:57:42;10.70;55.50
2106;DHT22;1059;52.548;13.408;2023-04-05T16:00:11;11.30;54.50
2106;DHT22;1059;52.548;13.408;2023-04-05T16:02:38;11.70;51.20
2106;DHT22;1059;52.548;13.408;2023-04-05T16:05:06;12.00;48.80
2106;DHT22;1059;52.548;13.408;2023-04-05T16:07:33;12.10;47.30
2106;DHT22;1059;52.548;13.408;2023-04-05T16:10:00;11.70;45.70
2106;DHT22;1059;52.548;13.408;2023-04-05T16:12:28;11.30;45.90